createdAt,value
2023-03-12T00:00:57.504Z,1.00
2023-03-12T00:06:09.070Z,1.00
2023-03-12T00:11:15.891Z,1.00
2023-03-12T00:16:18.368Z,1.00
2023-03-12T00:21:21.938Z,1.00
2023-03-12T00:26:24.284Z,1.00
2023-03-12T00:31:30.138Z,1.00
2023-03-12T00:36:33.136Z,1.00
2023-03-12T00:41:35.490Z,1.00
2023-03-12T00:46:37.885Z,1.00
2023-03-12T00:51:40.306Z,99.90
2023-03-12T00:56:42.695Z,34.10
2023-03-12T01:01:45.384Z,99.90
2023-03-12T01:06:47.739Z,99.90
2023-03-12T01:11:50.064Z,1.00
2023-03-12T01:16:52.725Z,99.90
2023-03-12T01:21:55.921Z,1.00
2023-03-12T01:26:58.479Z,1.00
2023-03-12T01:32:00.763Z,1.00
2023-03-12T01:37:03.084Z,1.00
2023-03-12T01:42:05.780Z,1.00
2023-03-12T01:47:08.563Z,99.90
2023-03-12T01:52:13.446Z,99.90
2023-03-12T01:57:26.620Z,1.00
2023-03-12T02:02:29.939Z,60.10
2023-03-12T02:07:35.591Z,99.90
2023-03-12T02:12:38.000Z,99.90
2023-03-12T02:17:40.979Z,99.90
2023-03-12T02:22:51.342Z,1.00
2023-03-12T02:27:55.595Z,1.00
2023-03-12T02:33:05.610Z,1.00
2023-03-12T02:38:33.211Z,1.00
2023-03-12T02:43:35.652Z,1.00
2023-03-12T02:48:38.221Z,1.00
2023-03-12T02:53:40.672Z,99.90
2023-03-12T02:58:43.168Z,99.90
2023-03-12T03:03:46.996Z,1.00
2023-03-12T03:08:49.462Z,1.00
2023-03-12T03:13:52.722Z,99.90
2023-03-12T03:18:55.982Z,99.90
2023-03-12T03:23:58.457Z,1.00
2023-03-12T03:29:00.934Z,99.90
2023-03-12T03:34:03.650Z,99.90
2023-03-12T03:39:06.076Z,99.90
2023-03-12T03:44:08.678Z,99.90
2023-03-12T03:49:13.284Z,1.00
2023-03-12T03:54:18.219Z,1.00
2023-03-12T03:59:21.532Z,1.00
2023-03-12T04:04:24.269Z,99.90
2023-03-12T04:09:27.010Z,99.90
2023-03-12T04:14:29.443Z,1.00
2023-03-12T04:19:31.891Z,1.00
2023-03-12T04:24:34.381Z,1.00
2023-03-12T04:29:39.204Z,99.90
2023-03-12T04:34:41.916Z,1.00
2023-03-12T04:39:45.303Z,1.00
2023-03-12T04:44:52.513Z,1.00
2023-03-12T04:49:55.152Z,1.00
2023-03-12T04:54:59.454Z,99.90
2023-03-12T05:00:02.054Z,29.40
2023-03-12T05:05:08.023Z,99.90
2023-03-12T05:10:11.513Z,99.90
2023-03-12T05:15:14.429Z,99.90
2023-03-12T05:20:17.838Z,99.90
2023-03-12T05:25:22.088Z,1.00
2023-03-12T05:30:24.917Z,99.90
2023-03-12T05:35:27.500Z,33.50
2023-03-12T05:40:30.605Z,1.00
2023-03-12T05:45:33.762Z,1.00
2023-03-12T05:50:36.732Z,1.00
2023-03-12T05:55:39.973Z,1.00
2023-03-12T06:00:44.356Z,99.90
2023-03-12T06:05:48.805Z,1.00
2023-03-12T06:10:54.802Z,24.70
2023-03-12T06:16:09.169Z,1.00
2023-03-12T06:21:18.789Z,1.00
2023-03-12T06:26:22.741Z,1.00
2023-03-12T06:31:25.509Z,1.00
2023-03-12T06:36:28.452Z,99.90
2023-03-12T06:41:30.795Z,7.60
2023-03-12T06:46:33.559Z,1.00
2023-03-12T06:51:36.287Z,99.90
2023-03-12T06:56:38.710Z,99.90
2023-03-12T07:01:41.077Z,1.00
2023-03-12T07:06:43.917Z,1.00
2023-03-12T07:11:46.269Z,1.00
2023-03-12T07:16:48.621Z,1.00
2023-03-12T07:21:50.911Z,1.00
2023-03-12T07:26:53.213Z,1.00
2023-03-12T07:31:55.794Z,99.90
2023-03-12T07:36:58.066Z,99.90
2023-03-12T07:42:01.460Z,99.90
2023-03-12T07:47:22.327Z,99.90
2023-03-12T07:52:25.608Z,85.10
2023-03-12T07:57:28.040Z,3.00
2023-03-12T08:02:30.545Z,1.00
2023-03-12T08:07:34.885Z,1.00
2023-03-12T08:12:37.669Z,1.00
2023-03-12T08:17:41.204Z,1.00
2023-03-12T08:22:44.067Z,1.00
2023-03-12T08:27:46.493Z,1.00
2023-03-12T08:32:49.072Z,1.00
2023-03-12T08:37:51.470Z,1.00
2023-03-12T08:42:53.832Z,1.00
2023-03-12T08:47:56.217Z,1.00
2023-03-12T08:52:59.537Z,1.00
2023-03-12T08:58:01.843Z,1.00
2023-03-12T09:03:04.265Z,1.00
2023-03-12T09:08:06.650Z,1.00
2023-03-12T09:13:09.180Z,1.00
2023-03-12T09:18:11.518Z,1.00
2023-03-12T09:23:13.810Z,1.00
2023-03-12T09:28:16.736Z,1.00
2023-03-12T09:33:19.014Z,1.00
2023-03-12T09:38:21.306Z,1.00
2023-03-12T09:43:32.358Z,1.00
2023-03-12T09:48:36.636Z,1.00
2023-03-12T09:53:47.111Z,1.00
2023-03-12T09:58:54.577Z,1.00
2023-03-12T10:04:05.857Z,1.00
2023-03-12T10:09:11.119Z,1.00
2023-03-12T10:14:24.218Z,1.00
2023-03-12T10:19:50.159Z,1.00
2023-03-12T10:25:01.867Z,99.90
2023-03-12T10:30:24.856Z,99.90
2023-03-12T10:35:32.236Z,1.00
2023-03-12T10:40:36.812Z,99.90
2023-03-12T10:45:57.068Z,99.90
2023-03-12T10:51:08.784Z,99.90
2023-03-12T10:56:14.860Z,99.90
2023-03-12T11:01:29.161Z,99.90
2023-03-12T11:06:31.545Z,99.90
2023-03-12T11:11:35.511Z,99.90
2023-03-12T11:16:37.811Z,99.90
2023-03-12T11:21:53.732Z,99.90
2023-03-12T11:27:44.574Z,99.90
2023-03-12T11:32:49.354Z,99.90
2023-03-12T11:37:51.634Z,99.90
2023-03-12T11:43:04.904Z,99.90
2023-03-12T11:48:24.738Z,99.90
2023-03-12T11:54:00.813Z,99.90
2023-03-12T11:59:15.938Z,99.90
2023-03-12T12:04:33.252Z,99.90
2023-03-12T12:09:52.647Z,99.90
2023-03-12T12:15:01.020Z,99.90
2023-03-12T12:20:18.592Z,99.90
2023-03-12T12:25:38.763Z,99.90
2023-03-12T12:31:20.759Z,99.90
2023-03-12T12:36:25.893Z,99.90
2023-03-12T12:41:33.012Z,99.90
2023-03-12T12:46:39.664Z,99.90
2023-03-12T12:51:48.010Z,99.90
2023-03-12T12:57:00.250Z,99.90
2023-03-12T13:02:04.595Z,99.90
2023-03-12T13:07:13.040Z,99.90
2023-03-12T13:12:18.150Z,99.90
2023-03-12T13:17:26.602Z,99.90
2023-03-12T13:22:42.178Z,99.90
2023-03-12T13:27:46.112Z,99.90
2023-03-12T13:32:49.853Z,99.90
2023-03-12T13:37:52.333Z,99.90
2023-03-12T13:43:12.760Z,99.90
2023-03-12T13:48:18.854Z,99.90
2023-03-12T13:53:34.722Z,99.90
2023-03-12T13:58:57.734Z,99.90
2023-03-12T14:04:03.982Z,99.90
2023-03-12T14:09:06.284Z,99.90
2023-03-12T14:14:41.524Z,99.90
2023-03-12T14:19:49.272Z,99.90
2023-03-12T14:24:56.775Z,99.90
2023-03-12T14:30:16.287Z,99.90
2023-03-12T14:35:44.328Z,99.90
2023-03-12T14:40:53.443Z,99.90
2023-03-12T14:45:57.554Z,99.90
2023-03-12T14:51:02.026Z,99.90
2023-03-12T14:56:32.996Z,99.90
2023-03-12T15:01:39.654Z,99.90
2023-03-12T15:06:51.093Z,99.90
2023-03-12T15:12:00.874Z,99.90
2023-03-12T15:17:05.515Z,99.90
2023-03-12T15:22:13.954Z,99.90
2023-03-12T15:27:25.730Z,99.90
2023-03-12T15:38:55.183Z,99.90
2023-03-12T15:43:58.847Z,99.90
2023-03-12T15:49:01.528Z,99.90
2023-03-12T15:54:05.758Z,99.90
2023-03-12T15:59:17.348Z,99.90
2023-03-12T16:04:20.428Z,99.90
2023-03-12T16:09:26.186Z,99.90
2023-03-12T16:14:35.131Z,99.90
2023-03-12T16:19:37.689Z,99.90
2023-03-12T16:24:40.199Z,99.90
2023-03-12T16:29:42.662Z,99.90
2023-03-12T16:34:45.647Z,99.90
2023-03-12T16:39:48.787Z,99.90
2023-03-12T16:44:51.383Z,99.90
2023-03-12T16:49:53.862Z,99.90
2023-03-12T16:54:56.741Z,99.90
2023-03-12T17:00:01.371Z,99.90
2023-03-12T17:05:03.988Z,1.00
2023-03-12T17:10:07.881Z,1.00
2023-03-12T17:15:25.973Z,1.00
2023-03-12T17:20:36.073Z,1.00
2023-03-12T17:25:41.035Z,1.00
2023-03-12T17:30:44.196Z,1.00
2023-03-12T17:35:46.873Z,1.00
2023-03-12T17:40:49.327Z,1.00
2023-03-12T17:45:51.830Z,1.00
2023-03-12T17:50:54.232Z,1.00
2023-03-12T17:57:11.358Z,1.00
2023-03-12T18:02:16.593Z,1.00
2023-03-12T18:07:19.052Z,1.00
2023-03-12T18:12:21.399Z,1.00
2023-03-12T18:17:23.844Z,1.00
2023-03-12T18:22:26.229Z,1.00
2023-03-12T18:27:28.584Z,1.00
2023-03-12T18:32:30.953Z,1.00
2023-03-12T18:37:33.917Z,1.00
2023-03-12T18:42:36.277Z,1.00
2023-03-12T18:47:44.766Z,1.00
2023-03-12T18:52:47.349Z,1.00
2023-03-12T18:57:49.806Z,1.00
2023-03-12T19:02:52.243Z,1.00
2023-03-12T19:07:54.576Z,1.00
2023-03-12T19:12:56.919Z,1.00
2023-03-12T19:17:59.353Z,1.00
2023-03-12T19:23:01.771Z,1.00
2023-03-12T19:28:04.143Z,1.00
2023-03-12T19:33:06.609Z,1.00
2023-03-12T19:38:09.222Z,1.00
2023-03-12T19:43:11.692Z,1.00
2023-03-12T19:48:15.072Z,1.00
2023-03-12T19:53:17.831Z,1.00
2023-03-12T19:58:20.267Z,1.00
2023-03-12T20:03:23.206Z,1.00
2023-03-12T20:08:31.473Z,1.00
2023-03-12T20:13:34.027Z,1.00
2023-03-12T20:18:36.689Z,1.00
2023-03-12T20:23:39.145Z,1.00
2023-03-12T20:28:42.186Z,1.00
2023-03-12T20:33:44.774Z,1.00
2023-03-12T20:38:48.965Z,1.00
2023-03-12T20:43:55.662Z,1.00
2023-03-12T20:48:58.096Z,1.00
2023-03-12T20:54:00.457Z,1.00
2023-03-12T20:59:03.214Z,1.00
2023-03-12T21:04:05.713Z,99.90
2023-03-12T21:09:08.066Z,99.90
2023-03-12T21:14:10.413Z,99.90
2023-03-12T21:19:12.812Z,1.00
2023-03-12T21:24:15.261Z,1.00
2023-03-12T21:29:17.837Z,99.90
2023-03-12T21:34:21.674Z,1.00
2023-03-12T21:39:24.148Z,1.00
2023-03-12T21:44:27.870Z,1.00
2023-03-12T21:49:30.195Z,99.90
2023-03-12T21:54:34.336Z,1.00
2023-03-12T21:59:39.953Z,1.00
2023-03-12T22:04:42.391Z,99.90
2023-03-12T22:09:45.133Z,99.90
2023-03-12T22:14:48.071Z,99.90
2023-03-12T22:19:50.628Z,99.90
2023-03-12T22:24:53.050Z,1.00
2023-03-12T22:29:57.443Z,1.00
2023-03-12T22:34:59.869Z,1.00
2023-03-12T22:40:07.114Z,1.00
2023-03-12T22:45:09.897Z,1.00
2023-03-12T22:50:13.263Z,1.00
2023-03-12T22:55:15.794Z,1.00
2023-03-12T23:00:23.214Z,1.00
2023-03-12T23:05:25.537Z,1.00
2023-03-12T23:10:27.916Z,1.00
2023-03-12T23:15:40.487Z,7.10
2023-03-12T23:20:44.151Z,34.70
2023-03-12T23:25:56.187Z,65.30
2023-03-12T23:31:05.180Z,90.70
2023-03-12T23:36:10.847Z,99.90
2023-03-12T23:41:16.829Z,99.90
2023-03-12T23:46:19.766Z,99.90
2023-03-12T23:51:25.043Z,99.90
2023-03-12T23:56:32.973Z,99.90
